Time;durP1;ratioP1;P1;durP2;ratioP2;P2;SDS_P1;SDS_P2;PMS_P1;PMS_P2;Temp;Humidity;BMP_temperature;BMP_pressure;BME280_temperature;BME280_humidity;BME280_pressure;Samples;Min_cycle;Max_cycle;Signal;HPM_P1;HPM_P2
2022/03/25 00:01:18;;;;;;;13.60;4.73;;;12.90;36.90;;;;;;5050423;28;20197;-77
2022/03/25 00:03:47;;;;;;;11.13;4.00;;;12.90;37.20;;;;;;5052038;28;20282;-77
2022/03/25 00:06:15;;;;;;;11.40;4.27;;;12.90;37.40;;;;;;5052244;28;20236;-77
2022/03/25 00:08:45;;;;;;;11.80;4.17;;;12.90;37.50;;;;;;5054078;28;20194;-79
2022/03/25 00:11:14;;;;;;;11.00;4.87;;;12.90;37.60;;;;;;5052045;28;20801;-77
2022/03/25 00:13:43;;;;;;;11.53;4.47;;;12.80;37.50;;;;;;5052105;28;20198;-78
2022/03/25 00:16:11;;;;;;;8.37;4.37;;;12.80;37.50;;;;;;5050926;28;20222;-80
2022/03/25 00:18:40;;;;;;;10.53;4.50;;;12.80;37.60;;;;;;5053458;28;20278;-78
2022/03/25 00:21:08;;;;;;;8.40;4.47;;;12.80;37.80;;;;;;5033127;28;20230;-78
2022/03/25 00:23:37;;;;;;;10.13;4.40;;;12.70;37.80;;;;;;5032511;28;20753;-76
2022/03/25 00:26:08;;;;;;;10.20;4.13;;;12.70;37.90;;;;;;5033326;28;21140;-77
2022/03/25 00:28:36;;;;;;;8.80;4.40;;;12.70;38.00;;;;;;5033181;28;20201;-76
2022/03/25 00:31:06;;;;;;;8.27;4.13;;;12.70;38.10;;;;;;5032111;28;20324;-78
2022/03/25 00:33:35;;;;;;;11.07;4.03;;;12.70;38.20;;;;;;5032262;28;21054;-78
2022/03/25 00:36:05;;;;;;;9.23;4.70;;;12.60;38.40;;;;;;5032717;28;20608;-78
2022/03/25 00:38:33;;;;;;;10.83;3.93;;;12.60;38.50;;;;;;5032642;28;20211;-78
2022/03/25 00:41:06;;;;;;;9.27;4.77;;;12.60;38.50;;;;;;5035122;28;20747;-77
2022/03/25 00:43:36;;;;;;;7.90;3.20;;;12.60;38.60;;;;;;5032982;28;20225;-78
2022/03/25 00:46:05;;;;;;;10.50;4.00;;;12.60;38.80;;;;;;5033261;28;20195;-78
2022/03/25 00:48:33;;;;;;;12.33;4.27;;;12.50;38.70;;;;;;5032496;28;20854;-78
2022/03/25 00:51:02;;;;;;;8.43;3.67;;;12.50;38.80;;;;;;5031324;28;20194;-78
2022/03/25 00:53:31;;;;;;;7.27;3.60;;;12.50;39.00;;;;;;5031826;28;20226;-78
2022/03/25 00:56:01;;;;;;;8.93;3.93;;;12.50;39.10;;;;;;5031044;28;20277;-78
2022/03/25 00:58:30;;;;;;;10.03;4.10;;;12.50;39.20;;;;;;5033661;28;20692;-79
2022/03/25 01:01:00;;;;;;;6.93;3.47;;;12.50;39.20;;;;;;5034440;28;20195;-78
2022/03/25 01:03:30;;;;;;;7.87;3.97;;;12.50;39.30;;;;;;5035520;28;20269;-79
2022/03/25 01:05:59;;;;;;;8.43;4.67;;;12.40;39.70;;;;;;5036450;28;20187;-78
2022/03/25 01:08:27;;;;;;;9.10;3.73;;;12.40;39.80;;;;;;5037027;28;20318;-78
2022/03/25 01:10:56;;;;;;;9.10;4.03;;;12.40;39.80;;;;;;5038350;28;20307;-78
2022/03/25 01:13:25;;;;;;;6.90;3.90;;;12.40;40.00;;;;;;5036710;28;20215;-80
2022/03/25 01:15:53;;;;;;;12.47;4.13;;;12.30;40.30;;;;;;5034991;28;20191;-77
2022/03/25 01:18:23;;;;;;;14.80;4.10;;;12.30;40.50;;;;;;5037941;28;21630;-79
2022/03/25 01:20:52;;;;;;;9.00;3.80;;;12.30;40.50;;;;;;5034319;28;20246;-78
2022/03/25 01:23:21;;;;;;;8.43;4.10;;;12.30;40.50;;;;;;5035524;28;20245;-78
2022/03/25 01:25:49;;;;;;;10.20;3.80;;;12.30;40.50;;;;;;5035496;28;20721;-77
2022/03/25 01:28:18;;;;;;;8.87;4.43;;;12.30;40.70;;;;;;5033811;28;20215;-78
2022/03/25 01:30:47;;;;;;;11.33;4.37;;;12.20;40.90;;;;;;5033619;28;20653;-79
2022/03/25 01:33:16;;;;;;;12.87;4.47;;;12.20;41.00;;;;;;5035259;28;20307;-79
2022/03/25 01:35:47;;;;;;;10.90;4.93;;;12.20;41.20;;;;;;5038504;28;20195;-77
2022/03/25 01:38:15;;;;;;;12.07;5.20;;;12.10;41.10;;;;;;5037422;28;20219;-77
2022/03/25 01:40:43;;;;;;;12.30;4.50;;;12.20;41.20;;;;;;5033587;28;20569;-78
2022/03/25 01:43:12;;;;;;;8.30;4.10;;;12.10;41.20;;;;;;5033330;28;20257;-77
2022/03/25 01:45:41;;;;;;;12.67;5.10;;;12.10;41.30;;;;;;5032944;28;20227;-78
2022/03/25 01:48:11;;;;;;;8.03;3.93;;;12.10;41.40;;;;;;5029771;28;20282;-78
2022/03/25 01:50:42;;;;;;;11.80;4.33;;;12.00;41.60;;;;;;5027361;28;20210;-78
2022/03/25 01:53:14;;;;;;;9.67;4.23;;;12.00;41.70;;;;;;5032495;28;20640;-78
2022/03/25 01:55:51;;;;;;;9.47;4.67;;;12.00;42.00;;;;;;5037159;28;20198;-78
2022/03/25 01:58:21;;;;;;;9.53;4.43;;;12.00;41.80;;;;;;5033589;28;20195;-78
2022/03/25 02:00:50;;;;;;;11.47;3.90;;;11.90;41.90;;;;;;5036034;28;20192;-77
2022/03/25 02:03:19;;;;;;;15.63;4.63;;;11.90;41.90;;;;;;5032548;28;20278;-78
2022/03/25 02:05:48;;;;;;;8.33;4.40;;;11.90;42.00;;;;;;5034116;28;20669;-77
2022/03/25 02:08:20;;;;;;;8.10;4.10;;;11.90;42.20;;;;;;5033889;28;20298;-77
2022/03/25 02:10:48;;;;;;;8.90;4.50;;;11.90;42.20;;;;;;5026942;28;20219;-77
2022/03/25 02:13:20;;;;;;;8.83;4.30;;;11.90;42.30;;;;;;5031225;28;20314;-77
2022/03/25 02:15:48;;;;;;;8.70;3.80;;;11.90;42.40;;;;;;5036344;28;20199;-80
2022/03/25 02:18:20;;;;;;;10.10;4.20;;;11.80;42.60;;;;;;5037314;28;20194;-77
2022/03/25 02:20:50;;;;;;;6.93;4.23;;;11.80;42.60;;;;;;5036261;28;20230;-77
2022/03/25 02:23:23;;;;;;;10.73;4.83;;;11.80;42.60;;;;;;5035711;28;20636;-78
2022/03/25 02:25:53;;;;;;;9.57;4.07;;;11.80;42.80;;;;;;5037656;28;20933;-78
2022/03/25 02:28:23;;;;;;;7.67;4.20;;;11.80;42.80;;;;;;5035329;28;20203;-76
2022/03/25 02:30:51;;;;;;;9.47;4.27;;;11.80;43.10;;;;;;5034022;28;20237;-77
2022/03/25 02:33:20;;;;;;;9.03;4.23;;;11.70;43.10;;;;;;5034519;28;20219;-76
2022/03/25 02:35:50;;;;;;;8.90;4.03;;;11.70;43.20;;;;;;5034976;28;20202;-78
2022/03/25 02:38:21;;;;;;;9.20;4.00;;;11.70;43.30;;;;;;5034005;28;20187;-77
2022/03/25 02:40:50;;;;;;;9.07;4.40;;;11.70;43.20;;;;;;5035631;28;20239;-77
2022/03/25 02:43:18;;;;;;;12.03;4.90;;;11.70;43.30;;;;;;5033501;28;20215;-79
2022/03/25 02:45:46;;;;;;;7.80;4.20;;;11.70;43.80;;;;;;5037410;28;20192;-78
2022/03/25 02:48:15;;;;;;;10.43;4.23;;;11.70;43.50;;;;;;5034242;28;20207;-78
2022/03/25 02:50:46;;;;;;;6.80;3.73;;;11.70;43.40;;;;;;5035525;28;20195;-77
2022/03/25 02:53:15;;;;;;;7.40;3.97;;;11.70;43.50;;;;;;5034117;28;20211;-78
2022/03/25 02:55:44;;;;;;;11.23;4.57;;;11.70;43.60;;;;;;5036288;28;20192;-78
2022/03/25 02:58:14;;;;;;;8.53;3.97;;;11.60;43.70;;;;;;5035342;28;20294;-79
2022/03/25 03:00:43;;;;;;;8.60;4.03;;;11.60;43.70;;;;;;5034371;28;20203;-79
2022/03/25 03:03:11;;;;;;;9.80;4.00;;;11.60;43.60;;;;;;5031471;28;20294;-77
2022/03/25 03:05:40;;;;;;;8.60;4.63;;;11.60;43.60;;;;;;5035457;28;20203;-78
2022/03/25 03:08:09;;;;;;;8.03;4.47;;;11.60;43.60;;;;;;5034701;28;20317;-78
2022/03/25 03:10:37;;;;;;;9.70;4.10;;;11.60;43.70;;;;;;5034806;28;20281;-79
2022/03/25 03:13:08;;;;;;;12.47;4.83;;;11.60;43.60;;;;;;5032783;28;20702;-78
2022/03/25 03:15:37;;;;;;;10.93;4.33;;;11.60;43.80;;;;;;5034952;28;20200;-78
2022/03/25 03:18:06;;;;;;;11.57;4.67;;;11.50;43.80;;;;;;5031408;28;20657;-77
2022/03/25 03:20:35;;;;;;;12.53;5.17;;;11.60;43.70;;;;;;5032576;28;20226;-77
2022/03/25 03:23:04;;;;;;;7.47;4.40;;;11.50;43.90;;;;;;5027980;28;20201;-77
2022/03/25 03:25:33;;;;;;;9.40;5.10;;;11.50;43.70;;;;;;5033567;28;20565;-77
2022/03/25 03:28:01;;;;;;;11.43;5.07;;;11.50;43.70;;;;;;5032110;28;20933;-78
2022/03/25 03:30:32;;;;;;;9.60;4.80;;;11.50;43.60;;;;;;5035393;28;20291;-77
2022/03/25 03:33:04;;;;;;;6.83;3.93;;;11.50;43.80;;;;;;5030358;28;20204;-77
2022/03/25 03:35:34;;;;;;;9.03;5.03;;;11.50;43.80;;;;;;5034776;28;20317;-77
2022/03/25 03:38:04;;;;;;;8.17;4.60;;;11.50;44.10;;;;;;5031924;28;20210;-78
2022/03/25 03:40:33;;;;;;;11.27;4.50;;;11.40;44.00;;;;;;5032863;28;20192;-77
2022/03/25 03:43:03;;;;;;;11.93;4.90;;;11.40;44.10;;;;;;5033402;28;20194;-78
2022/03/25 03:45:33;;;;;;;8.93;4.30;;;11.40;44.30;;;;;;5032229;28;20234;-78
2022/03/25 03:48:01;;;;;;;9.30;4.70;;;11.40;44.40;;;;;;5034586;28;20206;-78
2022/03/25 03:50:28;;;;;;;11.70;4.90;;;11.40;44.30;;;;;;5034812;28;20331;-77
2022/03/25 03:52:57;;;;;;;11.23;4.90;;;11.40;44.20;;;;;;5030768;28;20203;-77
2022/03/25 03:55:26;;;;;;;10.27;4.37;;;11.40;44.20;;;;;;5025139;28;20206;-77
2022/03/25 03:57:54;;;;;;;10.33;4.93;;;11.40;44.30;;;;;;5026611;28;20826;-77
2022/03/25 04:00:24;;;;;;;17.03;4.43;;;11.30;44.40;;;;;;5033045;28;20572;-78
2022/03/25 04:02:55;;;;;;;10.37;4.43;;;11.30;44.70;;;;;;5032467;28;20235;-77
2022/03/25 04:05:24;;;;;;;10.27;4.80;;;11.30;44.40;;;;;;5034018;28;20268;-77
2022/03/25 04:07:53;;;;;;;12.23;5.03;;;11.30;44.70;;;;;;5031255;28;20207;-78
2022/03/25 04:10:22;;;;;;;12.10;5.20;;;11.30;44.30;;;;;;5034254;28;20201;-77
2022/03/25 04:12:50;;;;;;;11.30;4.30;;;11.30;44.30;;;;;;5034010;28;20675;-77
2022/03/25 04:15:19;;;;;;;13.50;5.37;;;11.20;44.80;;;;;;5030665;28;20198;-80
2022/03/25 04:17:47;;;;;;;9.97;4.60;;;11.20;44.60;;;;;;5031448;28;20210;-78
2022/03/25 04:20:18;;;;;;;9.10;4.97;;;11.20;44.70;;;;;;5032332;28;20244;-77
2022/03/25 04:22:47;;;;;;;7.87;4.17;;;11.20;44.70;;;;;;5033551;28;20199;-78
2022/03/25 04:25:15;;;;;;;10.23;5.50;;;11.20;45.00;;;;;;5030843;28;20203;-78
2022/03/25 04:27:51;;;;;;;11.47;5.03;;;11.20;44.70;;;;;;5032572;28;21629;-78
2022/03/25 04:30:22;;;;;;;13.47;5.67;;;11.20;44.60;;;;;;5030886;28;20283;-78
2022/03/25 04:32:51;;;;;;;10.40;4.77;;;11.20;44.40;;;;;;5031284;28;20199;-77
2022/03/25 04:35:21;;;;;;;11.37;4.87;;;11.20;44.40;;;;;;5032178;28;20814;-78
2022/03/25 04:37:50;;;;;;;11.33;4.63;;;11.20;44.40;;;;;;5033157;28;20206;-78
2022/03/25 04:40:20;;;;;;;11.97;4.70;;;11.20;44.70;;;;;;5032415;28;20206;-80
2022/03/25 04:42:49;;;;;;;10.30;4.27;;;11.20;45.00;;;;;;5031156;28;20203;-78
2022/03/25 04:45:18;;;;;;;13.07;5.70;;;11.20;45.30;;;;;;5031455;28;20232;-78
2022/03/25 04:47:47;;;;;;;10.37;5.13;;;11.10;45.40;;;;;;5034825;28;20209;-78
2022/03/25 04:50:15;;;;;;;13.37;5.30;;;11.10;45.60;;;;;;5031571;28;20213;-77
2022/03/25 04:52:46;;;;;;;13.43;6.33;;;11.10;45.90;;;;;;5028354;28;20198;-77
2022/03/25 04:55:16;;;;;;;11.73;6.07;;;11.10;45.90;;;;;;5032673;28;20240;-77
2022/03/25 04:57:46;;;;;;;11.10;5.33;;;11.00;45.80;;;;;;5028808;28;20198;-77
2022/03/25 05:00:15;;;;;;;13.73;5.43;;;11.00;45.90;;;;;;5034928;28;20203;-77
2022/03/25 05:02:43;;;;;;;12.93;5.27;;;11.00;45.90;;;;;;5031853;28;20206;-77
2022/03/25 05:05:13;;;;;;;11.63;5.53;;;11.00;45.90;;;;;;5033267;28;20190;-77
2022/03/25 05:07:43;;;;;;;13.53;5.53;;;10.90;46.00;;;;;;5031309;28;20205;-77
2022/03/25 05:10:14;;;;;;;12.90;4.93;;;11.00;45.70;;;;;;5033798;28;20199;-77
2022/03/25 05:12:43;;;;;;;11.57;5.30;;;10.90;45.70;;;;;;5032209;28;20201;-77
2022/03/25 05:15:12;;;;;;;12.97;5.50;;;10.90;45.60;;;;;;5030964;28;20221;-78
2022/03/25 05:17:45;;;;;;;11.60;5.83;;;10.90;45.50;;;;;;5033216;28;20210;-77
2022/03/25 05:20:16;;;;;;;15.30;6.63;;;10.90;45.60;;;;;;5031397;28;20230;-78
2022/03/25 05:22:44;;;;;;;14.87;5.90;;;10.90;45.70;;;;;;5028356;28;20184;-78
2022/03/25 05:25:14;;;;;;;15.37;6.33;;;10.90;45.60;;;;;;5034274;28;20353;-78
2022/03/25 05:27:47;;;;;;;13.07;6.27;;;10.90;45.60;;;;;;5031208;28;20739;-78
2022/03/25 05:30:16;;;;;;;17.67;6.57;;;10.90;45.90;;;;;;5033567;28;20948;-76
2022/03/25 05:32:45;;;;;;;16.10;6.37;;;10.90;45.70;;;;;;5031988;28;20210;-77
2022/03/25 05:35:19;;;;;;;15.43;6.87;;;10.90;45.70;;;;;;5026646;28;20210;-79
2022/03/25 05:37:47;;;;;;;16.63;6.63;;;11.00;45.70;;;;;;5030583;28;20213;-78
2022/03/25 05:40:18;;;;;;;13.97;6.20;;;11.00;45.60;;;;;;5033551;28;20595;-77
2022/03/25 05:42:47;;;;;;;18.53;7.53;;;11.00;45.50;;;;;;5031384;28;20197;-81
2022/03/25 05:45:17;;;;;;;15.03;6.80;;;11.10;45.90;;;;;;5028699;28;20858;-77
2022/03/25 05:47:45;;;;;;;24.60;6.67;;;11.10;45.80;;;;;;5029355;28;20244;-78
2022/03/25 05:50:14;;;;;;;16.30;7.97;;;11.10;45.70;;;;;;5038147;28;20203;-76
2022/03/25 05:52:43;;;;;;;19.73;7.93;;;11.10;45.70;;;;;;5035049;28;20202;-77
2022/03/25 05:55:13;;;;;;;16.60;6.43;;;11.10;45.60;;;;;;5034732;28;20227;-77
2022/03/25 05:57:44;;;;;;;17.17;7.23;;;11.10;45.40;;;;;;5035207;28;20204;-77
2022/03/25 06:00:14;;;;;;;13.73;6.40;;;11.10;45.40;;;;;;5033198;28;20191;-77
2022/03/25 06:02:44;;;;;;;16.47;7.20;;;11.10;45.30;;;;;;5034662;28;20206;-77
2022/03/25 06:05:13;;;;;;;17.33;7.27;;;11.10;45.00;;;;;;5034687;28;20681;-78
2022/03/25 06:07:43;;;;;;;13.27;6.67;;;11.10;45.00;;;;;;5035555;28;20188;-77
2022/03/25 06:10:14;;;;;;;21.40;6.67;;;11.10;44.90;;;;;;5034270;28;20216;-77
2022/03/25 06:12:44;;;;;;;16.30;7.10;;;11.10;44.80;;;;;;5035045;28;20842;-77
2022/03/25 06:15:15;;;;;;;18.97;5.93;;;11.20;44.80;;;;;;5031428;28;20238;-77
2022/03/25 06:17:48;;;;;;;16.00;5.70;;;11.20;44.80;;;;;;5030862;28;20199;-76
2022/03/25 06:20:23;;;;;;;20.03;6.60;;;11.30;44.70;;;;;;5033413;28;20241;-77
2022/03/25 06:22:54;;;;;;;15.10;6.13;;;11.30;44.70;;;;;;5033914;28;20209;-77
2022/03/25 06:25:23;;;;;;;11.87;6.33;;;11.40;44.70;;;;;;5035086;28;20198;-77
2022/03/25 06:27:54;;;;;;;12.17;6.07;;;11.40;44.70;;;;;;5035652;28;20569;-76
2022/03/25 06:30:24;;;;;;;13.73;6.50;;;11.40;44.50;;;;;;5036925;28;20187;-77
2022/03/25 06:32:53;;;;;;;13.40;5.97;;;11.50;44.50;;;;;;5034324;28;20191;-77
2022/03/25 06:35:22;;;;;;;12.27;6.03;;;11.50;44.40;;;;;;5035551;28;20223;-77
2022/03/25 06:37:51;;;;;;;15.40;6.67;;;11.60;44.40;;;;;;5037257;28;20201;-77
2022/03/25 06:40:21;;;;;;;13.83;6.03;;;11.70;44.30;;;;;;5036453;28;20364;-78
2022/03/25 06:42:50;;;;;;;13.67;6.60;;;11.70;44.20;;;;;;5036529;28;20203;-77
2022/03/25 06:45:20;;;;;;;21.70;7.03;;;11.80;44.20;;;;;;5035212;28;20195;-79
2022/03/25 06:47:48;;;;;;;15.03;5.93;;;11.90;44.20;;;;;;5034786;28;20202;-79
2022/03/25 06:50:18;;;;;;;16.37;7.33;;;11.90;44.70;;;;;;5034357;28;20211;-79
2022/03/25 06:52:47;;;;;;;13.10;6.10;;;11.90;43.90;;;;;;5033769;28;20207;-77
2022/03/25 06:55:17;;;;;;;17.50;6.43;;;12.00;44.00;;;;;;5035048;28;20246;-78
2022/03/25 06:57:49;;;;;;;12.93;6.00;;;12.10;43.90;;;;;;5033938;28;20200;-78
2022/03/25 07:00:21;;;;;;;25.07;6.60;;;12.10;43.90;;;;;;5034109;28;20191;-78
2022/03/25 07:02:51;;;;;;;16.07;6.37;;;12.20;43.80;;;;;;5034678;28;20222;-78
2022/03/25 07:05:21;;;;;;;16.73;6.40;;;12.30;43.70;;;;;;5034771;28;20679;-78
2022/03/25 07:07:50;;;;;;;13.60;6.87;;;12.40;43.70;;;;;;5033436;28;21634;-78
2022/03/25 07:10:23;;;;;;;13.33;5.83;;;12.40;43.60;;;;;;5036815;28;20205;-78
2022/03/25 07:12:52;;;;;;;14.27;5.97;;;12.50;43.60;;;;;;5031403;28;20202;-78
2022/03/25 07:15:23;;;;;;;14.80;7.27;;;12.50;43.60;;;;;;5034027;28;20214;-78
2022/03/25 07:17:53;;;;;;;12.13;6.97;;;12.70;43.60;;;;;;5035366;28;20196;-78
2022/03/25 07:20:25;;;;;;;15.37;6.50;;;12.80;43.50;;;;;;5034282;28;20250;-78
2022/03/25 07:22:54;;;;;;;17.57;7.03;;;13.00;43.60;;;;;;5034602;28;20253;-78
2022/03/25 07:25:25;;;;;;;14.77;6.07;;;13.10;43.40;;;;;;5036130;28;20201;-78
2022/03/25 07:27:53;;;;;;;13.97;6.40;;;13.20;43.10;;;;;;5035105;28;20233;-78
2022/03/25 07:30:23;;;;;;;15.40;7.43;;;13.30;43.00;;;;;;5035013;28;20194;-79
2022/03/25 07:32:52;;;;;;;16.20;6.80;;;13.40;42.80;;;;;;5036447;28;20242;-77
2022/03/25 07:35:21;;;;;;;15.23;7.50;;;13.50;42.80;;;;;;5034533;28;20379;-78
2022/03/25 07:37:49;;;;;;;19.07;7.67;;;13.60;42.70;;;;;;5034462;28;20201;-78
2022/03/25 07:40:18;;;;;;;14.33;7.00;;;13.70;42.70;;;;;;5034813;28;20209;-78
2022/03/25 07:42:46;;;;;;;12.97;7.03;;;13.80;42.40;;;;;;5033744;28;20196;-78
2022/03/25 07:45:15;;;;;;;17.77;6.43;;;13.80;42.10;;;;;;5031099;28;20203;-78
2022/03/25 07:47:49;;;;;;;14.27;7.10;;;13.90;42.10;;;;;;5034164;28;20203;-77
2022/03/25 07:50:19;;;;;;;12.40;7.07;;;14.00;41.90;;;;;;5035742;28;20250;-78
2022/03/25 07:52:49;;;;;;;17.73;7.77;;;14.10;41.80;;;;;;5034914;28;20199;-79
2022/03/25 07:56:32;;;;;;;12.70;6.23;;;14.10;41.70;;;;;;5040155;28;20207;-78
2022/03/25 07:59:05;;;;;;;19.00;7.03;;;14.20;41.50;;;;;;4972971;28;20198;-78
2022/03/25 08:01:34;;;;;;;13.40;6.67;;;14.30;41.30;;;;;;5033695;28;20198;-76
2022/03/25 08:04:04;;;;;;;17.57;7.17;;;14.30;40.90;;;;;;5033815;28;20250;-76
2022/03/25 08:06:33;;;;;;;19.70;7.30;;;14.40;41.20;;;;;;5031254;28;20191;-76
2022/03/25 08:09:02;;;;;;;16.23;6.80;;;14.40;40.80;;;;;;5032526;28;20195;-77
2022/03/25 08:11:31;;;;;;;16.93;6.97;;;14.40;40.80;;;;;;5033003;28;20568;-77
2022/03/25 08:14:02;;;;;;;11.57;6.90;;;14.40;41.00;;;;;;5033866;28;20208;-78
2022/03/25 08:16:30;;;;;;;13.90;7.20;;;14.40;40.90;;;;;;5035605;28;20563;-78
2022/03/25 08:18:59;;;;;;;16.00;7.97;;;14.50;41.20;;;;;;5035823;28;20272;-77
2022/03/25 08:21:32;;;;;;;17.07;7.13;;;14.50;41.00;;;;;;5034257;28;20559;-77
2022/03/25 08:29:36;;;;;;;15.87;7.97;;;14.60;41.10;;;;;;5037940;28;20307;-78
2022/03/25 08:32:06;;;;;;;13.40;7.20;;;14.60;41.30;;;;;;5033320;28;20207;-78
2022/03/25 08:34:37;;;;;;;12.63;6.53;;;14.70;41.50;;;;;;5036224;28;20218;-77
2022/03/25 08:37:09;;;;;;;14.80;7.27;;;14.70;41.60;;;;;;5035849;28;20640;-77
2022/03/25 08:39:41;;;;;;;19.13;8.37;;;14.80;41.40;;;;;;5038337;28;20195;-79
2022/03/25 08:42:15;;;;;;;15.73;7.33;;;15.00;41.20;;;;;;4994444;28;20286;-78
2022/03/25 08:44:49;;;;;;;18.37;7.77;;;15.00;41.00;;;;;;5043719;28;20269;-78
2022/03/25 08:47:18;;;;;;;18.70;8.57;;;15.10;41.00;;;;;;5042300;28;20202;-79
2022/03/25 08:49:53;;;;;;;12.53;6.60;;;15.10;40.40;;;;;;5038277;28;20692;-78
2022/03/25 08:53:09;;;;;;;13.33;7.07;;;15.10;40.50;;;;;;5034403;28;20695;-78
2022/03/25 08:55:42;;;;;;;14.43;7.43;;;15.20;40.80;;;;;;5034606;28;20234;-76
2022/03/25 08:58:11;;;;;;;19.87;7.30;;;15.20;41.00;;;;;;5034898;28;20234;-77
2022/03/25 09:00:40;;;;;;;16.77;7.70;;;15.30;40.20;;;;;;5030834;28;20215;-77
2022/03/25 09:03:09;;;;;;;10.27;6.50;;;15.30;40.00;;;;;;5033090;28;20581;-79
2022/03/25 09:05:38;;;;;;;15.00;7.17;;;15.50;39.90;;;;;;5031800;28;20204;-78
2022/03/25 09:08:08;;;;;;;20.03;7.47;;;15.50;39.50;;;;;;5031975;28;20191;-78
2022/03/25 09:10:37;;;;;;;13.90;7.37;;;15.60;39.60;;;;;;5033056;28;20199;-79
2022/03/25 09:13:05;;;;;;;13.43;6.73;;;15.60;39.60;;;;;;5033702;28;20212;-79
2022/03/25 09:15:35;;;;;;;16.00;7.03;;;15.70;39.70;;;;;;5030452;28;20747;-79
2022/03/25 09:18:04;;;;;;;11.50;6.47;;;15.80;39.60;;;;;;5030626;28;20199;-80
2022/03/25 09:20:35;;;;;;;12.27;7.23;;;15.80;38.40;;;;;;5032512;28;20776;-79
2022/03/25 09:23:03;;;;;;;11.13;6.43;;;15.90;38.30;;;;;;5038148;28;20191;-79
2022/03/25 09:25:34;;;;;;;17.20;7.43;;;15.90;37.80;;;;;;5034421;28;20207;-79
2022/03/25 09:28:29;;;;;;;12.10;6.47;;;16.00;38.30;;;;;;5035953;28;20834;-76
2022/03/25 09:31:11;;;;;;;17.47;7.20;;;16.10;38.00;;;;;;5027965;28;20198;-78
2022/03/25 09:35:08;;;;;;;16.30;7.23;;;16.10;37.40;;;;;;5036390;28;20195;-78
2022/03/25 09:36:39;;;;;;;19.60;6.57;;;16.10;37.60;;;;;;5035090;28;20216;-79
2022/03/25 09:39:08;;;;;;;13.40;6.50;;;16.20;37.20;;;;;;5038171;28;20199;-78
2022/03/25 09:41:38;;;;;;;15.77;5.97;;;16.30;37.40;;;;;;5037061;28;20208;-78
2022/03/25 09:44:08;;;;;;;15.47;6.53;;;16.40;37.20;;;;;;5035251;28;20203;-78
2022/03/25 09:46:42;;;;;;;11.07;6.03;;;16.40;36.50;;;;;;5035773;28;20191;-79
2022/03/25 09:49:11;;;;;;;11.60;6.30;;;16.50;36.40;;;;;;5034628;28;20188;-79
2022/03/25 09:51:41;;;;;;;14.87;6.73;;;16.60;36.70;;;;;;5036542;28;20199;-83
2022/03/25 09:54:13;;;;;;;14.00;5.97;;;16.60;36.70;;;;;;5034875;28;20771;-81
2022/03/25 09:56:43;;;;;;;14.00;7.10;;;16.70;36.90;;;;;;5036167;28;20229;-86
2022/03/25 09:59:17;;;;;;;12.63;6.97;;;16.80;36.70;;;;;;5037215;28;20290;-79
2022/03/25 10:01:47;;;;;;;13.83;6.40;;;16.80;36.10;;;;;;5035432;28;20186;-81
2022/03/25 10:04:43;;;;;;;15.73;6.73;;;16.80;36.40;;;;;;5035976;28;20209;-81
2022/03/25 10:07:20;;;;;;;18.07;6.53;;;16.90;36.40;;;;;;5006707;28;20718;-80
2022/03/25 10:09:50;;;;;;;13.87;6.00;;;16.90;36.00;;;;;;5034770;28;20706;-80
2022/03/25 10:12:24;;;;;;;14.57;6.60;;;17.00;36.10;;;;;;5035406;28;20203;-78
2022/03/25 10:15:09;;;;;;;11.10;6.00;;;17.10;36.30;;;;;;5037588;28;20306;-81
2022/03/25 10:17:46;;;;;;;13.93;7.13;;;17.10;35.90;;;;;;5037732;28;20214;-82
2022/03/25 10:20:15;;;;;;;14.43;6.60;;;17.20;36.00;;;;;;5035440;28;20230;-81
2022/03/25 10:22:58;;;;;;;13.43;7.50;;;17.20;35.90;;;;;;5036189;28;21042;-80
2022/03/25 10:25:38;;;;;;;13.60;6.50;;;17.20;35.90;;;;;;5036555;28;20886;-82
2022/03/25 10:28:32;;;;;;;13.03;6.40;;;17.20;35.70;;;;;;5038556;28;20190;-84
2022/03/25 10:31:03;;;;;;;15.73;6.17;;;17.40;35.90;;;;;;5042249;28;20233;-85
2022/03/25 10:33:34;;;;;;;13.73;6.43;;;17.50;35.90;;;;;;5035839;28;20811;-80
2022/03/25 10:36:07;;;;;;;15.43;6.67;;;17.50;35.60;;;;;;5036361;28;20208;-83
2022/03/25 10:38:44;;;;;;;17.83;6.90;;;17.50;34.90;;;;;;5036191;28;20700;-83
2022/03/25 10:41:14;;;;;;;11.80;5.83;;;17.50;34.70;;;;;;5036399;28;20194;-81
2022/03/25 10:43:59;;;;;;;14.37;5.77;;;17.60;34.10;;;;;;5035319;28;20642;-81
2022/03/25 10:46:34;;;;;;;13.40;6.77;;;17.70;34.60;;;;;;5035363;28;20257;-80
2022/03/25 10:49:06;;;;;;;14.00;7.03;;;17.70;35.00;;;;;;5035310;28;20226;-81
2022/03/25 10:51:35;;;;;;;11.10;6.20;;;17.70;35.00;;;;;;5036122;28;20214;-82
2022/03/25 10:54:08;;;;;;;11.17;6.17;;;17.80;35.20;;;;;;5035002;28;20234;-80
2022/03/25 10:56:45;;;;;;;11.57;6.77;;;17.90;34.70;;;;;;5034227;28;20203;-80
2022/03/25 10:59:26;;;;;;;18.23;14.90;;;18.00;34.70;;;;;;5036933;28;20214;-80
2022/03/25 11:01:57;;;;;;;44.90;26.97;;;18.00;34.40;;;;;;5035724;28;21110;-82
2022/03/25 11:04:26;;;;;;;22.30;11.20;;;18.10;34.50;;;;;;5034020;28;20217;-82
2022/03/25 11:06:59;;;;;;;22.97;11.70;;;18.20;34.90;;;;;;5033846;28;20202;-81
2022/03/25 11:13:06;;;;;;;35.57;20.60;;;18.40;33.90;;;;;;5032426;28;20336;-79
2022/03/25 11:15:38;;;;;;;12.13;6.90;;;18.50;33.10;;;;;;5036394;28;20214;-78
2022/03/25 11:18:07;;;;;;;12.27;5.73;;;18.60;33.10;;;;;;5033210;28;20211;-77
2022/03/25 11:20:36;;;;;;;23.57;12.13;;;18.70;33.20;;;;;;5033534;28;20231;-78
2022/03/25 11:23:14;;;;;;;60.40;30.60;;;18.80;32.70;;;;;;5034778;28;20834;-78
2022/03/25 11:25:45;;;;;;;15.43;6.73;;;19.00;32.30;;;;;;5035306;28;20662;-77
2022/03/25 11:28:19;;;;;;;34.33;19.83;;;19.10;32.30;;;;;;5032268;28;20210;-78
2022/03/25 11:30:58;;;;;;;122.30;69.87;;;19.10;32.60;;;;;;5035384;28;20205;-77
2022/03/25 11:33:27;;;;;;;14.83;6.60;;;19.20;32.90;;;;;;5034642;28;20188;-75
2022/03/25 11:36:15;;;;;;;11.00;6.10;;;19.30;32.40;;;;;;5033405;28;20385;-77
2022/03/25 11:38:44;;;;;;;14.67;6.00;;;19.30;31.60;;;;;;5035812;28;20215;-77
2022/03/25 11:41:22;;;;;;;9.00;5.17;;;19.40;32.00;;;;;;5036299;28;20200;-76
2022/03/25 11:44:19;;;;;;;12.47;5.73;;;19.50;32.00;;;;;;5034318;28;20231;-78
2022/03/25 11:47:18;;;;;;;9.80;5.27;;;19.50;31.90;;;;;;5032901;28;20328;-78
2022/03/25 11:49:46;;;;;;;13.00;5.30;;;19.50;31.50;;;;;;5035074;28;20196;-78
2022/03/25 11:52:33;;;;;;;11.77;5.10;;;19.50;31.60;;;;;;5033646;28;20207;-78
2022/03/25 11:55:02;;;;;;;9.83;5.10;;;19.40;30.90;;;;;;5032472;28;20565;-78
2022/03/25 11:57:33;;;;;;;10.00;5.30;;;19.40;30.10;;;;;;5033245;28;20226;-77
2022/03/25 12:00:04;;;;;;;11.77;5.23;;;19.40;30.50;;;;;;5032763;28;20210;-79
2022/03/25 12:02:36;;;;;;;15.80;4.83;;;19.40;30.70;;;;;;5032694;28;20676;-78
2022/03/25 12:05:29;;;;;;;11.47;4.83;;;19.40;30.80;;;;;;5033047;28;20834;-77
2022/03/25 12:08:27;;;;;;;10.87;4.57;;;19.40;31.30;;;;;;5034230;28;20237;-77
2022/03/25 12:10:57;;;;;;;13.70;5.80;;;19.30;30.80;;;;;;5034686;28;20199;-77
2022/03/25 12:14:04;;;;;;;10.93;4.37;;;19.30;31.00;;;;;;5033348;28;20201;-77
2022/03/25 12:16:55;;;;;;;8.50;4.50;;;19.20;31.20;;;;;;5032831;28;20202;-76
2022/03/25 12:19:51;;;;;;;8.27;4.67;;;19.20;31.50;;;;;;5031733;28;20330;-77
2022/03/25 12:22:40;;;;;;;11.27;6.40;;;19.10;31.70;;;;;;5033016;28;20194;-77
2022/03/25 12:25:21;;;;;;;10.43;5.30;;;19.00;31.40;;;;;;5032626;28;20199;-77
2022/03/25 12:27:53;;;;;;;16.03;5.73;;;19.00;31.50;;;;;;5032797;28;20198;-77
2022/03/25 12:30:22;;;;;;;13.13;5.83;;;18.90;31.60;;;;;;5034459;28;20208;-75
2022/03/25 12:32:52;;;;;;;13.73;5.73;;;18.90;31.80;;;;;;5035376;28;20218;-77
2022/03/25 12:35:26;;;;;;;8.23;4.67;;;18.90;31.80;;;;;;5032939;28;20708;-77
2022/03/25 12:38:04;;;;;;;12.37;5.37;;;18.80;32.00;;;;;;5032616;28;20215;-78
2022/03/25 12:40:36;;;;;;;10.07;5.87;;;18.80;31.90;;;;;;5031248;28;20905;-78
2022/03/25 12:43:11;;;;;;;10.07;4.97;;;18.70;32.40;;;;;;5032294;28;20202;-77
2022/03/25 12:45:41;;;;;;;10.33;4.70;;;18.70;32.60;;;;;;5034225;28;20187;-77
2022/03/25 12:48:12;;;;;;;13.17;5.73;;;18.60;32.70;;;;;;5033436;28;20202;-76
2022/03/25 12:50:44;;;;;;;12.20;5.40;;;18.60;32.80;;;;;;5033579;28;20572;-75
2022/03/25 12:53:14;;;;;;;11.30;5.37;;;18.40;34.10;;;;;;5032897;28;20205;-75
2022/03/25 12:55:44;;;;;;;16.87;6.90;;;18.30;33.70;;;;;;5031959;28;20199;-74
2022/03/25 12:58:15;;;;;;;16.07;6.30;;;18.10;34.50;;;;;;5035342;28;20196;-76
2022/03/25 13:00:45;;;;;;;18.37;6.53;;;17.90;35.70;;;;;;5037177;28;20198;-76
2022/03/25 13:03:15;;;;;;;17.47;6.80;;;17.70;36.50;;;;;;5036563;28;20601;-75
2022/03/25 13:05:45;;;;;;;18.73;6.63;;;17.50;36.90;;;;;;5035368;28;20927;-77
2022/03/25 13:08:15;;;;;;;12.63;6.60;;;17.40;37.90;;;;;;5038682;28;20192;-76
2022/03/25 13:10:45;;;;;;;11.43;6.40;;;17.20;39.10;;;;;;5035035;28;20253;-76